createdAt,value
2022-10-15T00:00:50.169Z,8.23
2022-10-15T00:03:17.158Z,8.85
2022-10-15T00:05:43.981Z,7.88
2022-10-15T00:08:11.857Z,8.13
2022-10-15T00:10:39.176Z,8.48
2022-10-15T00:13:06.641Z,9.82
2022-10-15T00:15:37.221Z,8.07
2022-10-15T00:18:04.088Z,7.40
2022-10-15T00:20:31.645Z,8.20
2022-10-15T00:22:58.489Z,7.90
2022-10-15T00:25:25.446Z,8.77
2022-10-15T00:27:52.203Z,8.27
2022-10-15T00:30:19.175Z,7.72
2022-10-15T00:32:46.060Z,8.07
2022-10-15T00:35:12.812Z,6.95
2022-10-15T00:37:39.639Z,7.57
2022-10-15T00:40:08.516Z,8.63
2022-10-15T00:42:35.361Z,7.80
2022-10-15T00:45:02.157Z,7.65
2022-10-15T00:48:04.300Z,7.22
2022-10-15T00:50:31.198Z,7.93
2022-10-15T00:53:03.749Z,8.65
2022-10-15T00:55:36.988Z,7.30
2022-10-15T00:58:14.169Z,7.53
2022-10-15T01:00:41.824Z,8.17
2022-10-15T01:03:08.941Z,7.65
2022-10-15T01:05:37.586Z,7.15
2022-10-15T01:08:04.369Z,7.85
2022-10-15T01:10:51.190Z,9.48
2022-10-15T01:13:56.830Z,9.73
2022-10-15T01:17:05.214Z,11.88
2022-10-15T01:19:38.984Z,11.93
2022-10-15T01:22:23.644Z,13.27
2022-10-15T01:25:51.067Z,15.88
2022-10-15T01:28:45.422Z,15.57
2022-10-15T01:31:29.616Z,14.00
2022-10-15T01:34:04.759Z,13.98
2022-10-15T01:37:11.937Z,13.48
2022-10-15T01:40:08.553Z,13.23
2022-10-15T01:42:52.831Z,15.25
2022-10-15T01:45:39.139Z,13.95
2022-10-15T01:48:12.030Z,13.98
2022-10-15T01:50:44.324Z,13.63
2022-10-15T01:53:15.745Z,14.05
2022-10-15T01:55:44.071Z,15.43
2022-10-15T01:58:12.536Z,15.65
2022-10-15T02:00:40.303Z,14.80
2022-10-15T02:03:07.125Z,15.10
2022-10-15T02:06:14.084Z,13.80
2022-10-15T02:08:49.846Z,13.10
2022-10-15T02:11:17.274Z,12.95
2022-10-15T02:14:14.838Z,13.20
2022-10-15T02:16:53.286Z,13.18
2022-10-15T02:19:38.029Z,12.57
2022-10-15T02:22:19.316Z,14.90
2022-10-15T02:25:14.315Z,14.20
2022-10-15T02:27:41.914Z,16.80
2022-10-15T02:30:10.492Z,16.27
2022-10-15T02:32:39.076Z,17.88
2022-10-15T02:35:08.568Z,15.23
2022-10-15T02:37:35.629Z,14.63
2022-10-15T02:40:02.547Z,14.60
2022-10-15T02:42:29.408Z,13.48
2022-10-15T02:44:56.221Z,15.32
2022-10-15T02:47:23.058Z,15.15
2022-10-15T02:49:49.801Z,14.85
2022-10-15T02:52:16.678Z,15.57
2022-10-15T02:54:43.498Z,15.52
2022-10-15T02:57:10.321Z,15.13
2022-10-15T02:59:37.110Z,14.00
2022-10-15T03:02:03.833Z,13.70
2022-10-15T03:04:30.580Z,14.40
2022-10-15T03:06:57.389Z,13.48
2022-10-15T03:09:24.154Z,13.52
2022-10-15T03:11:50.848Z,16.05
2022-10-15T03:14:17.682Z,18.52
2022-10-15T03:16:44.482Z,15.85
2022-10-15T03:19:12.115Z,14.15
2022-10-15T03:21:38.838Z,12.80
2022-10-15T03:24:06.243Z,12.80
2022-10-15T03:26:32.983Z,14.00
2022-10-15T03:28:59.864Z,15.32
2022-10-15T03:31:26.584Z,12.48
2022-10-15T03:33:53.393Z,12.45
2022-10-15T03:36:20.297Z,10.93
2022-10-15T03:38:47.109Z,11.80
2022-10-15T03:41:13.963Z,11.38
2022-10-15T03:43:42.839Z,11.65
2022-10-15T03:46:10.311Z,12.68
2022-10-15T03:48:37.126Z,11.68
2022-10-15T03:51:04.245Z,10.93
2022-10-15T03:53:30.989Z,12.75
2022-10-15T03:56:06.852Z,13.98
2022-10-15T03:58:33.596Z,11.63
2022-10-15T04:01:00.397Z,12.43
2022-10-15T04:03:27.388Z,11.50
2022-10-15T04:05:55.353Z,10.18
2022-10-15T04:08:22.815Z,10.50
2022-10-15T04:10:51.397Z,11.47
2022-10-15T04:13:18.170Z,10.05
2022-10-15T04:15:44.957Z,10.30
2022-10-15T04:18:12.873Z,10.25
2022-10-15T04:20:40.787Z,10.32
2022-10-15T04:23:07.506Z,10.65
2022-10-15T04:25:34.271Z,10.55
2022-10-15T04:28:02.018Z,12.00
2022-10-15T04:30:28.832Z,13.55
2022-10-15T04:32:55.579Z,13.60
2022-10-15T04:35:22.410Z,12.48
2022-10-15T04:37:49.199Z,11.90
2022-10-15T04:40:16.393Z,11.18
2022-10-15T04:42:43.118Z,12.35
2022-10-15T04:45:10.152Z,13.67
2022-10-15T04:47:37.148Z,12.65
2022-10-15T04:52:30.929Z,13.50
2022-10-15T04:59:56.958Z,17.20
2022-10-15T05:02:24.853Z,17.60
2022-10-15T05:04:51.636Z,16.20
2022-10-15T05:07:18.389Z,16.00
2022-10-15T05:14:40.199Z,16.45
2022-10-15T05:17:06.969Z,15.53
2022-10-15T05:19:33.716Z,14.90
2022-10-15T05:22:00.531Z,15.80
2022-10-15T05:24:27.317Z,15.60
2022-10-15T05:26:54.123Z,15.87
2022-10-15T05:29:21.066Z,15.50
2022-10-15T05:31:50.784Z,15.10
2022-10-15T05:34:17.693Z,14.00
2022-10-15T05:36:44.418Z,16.35
2022-10-15T05:39:12.156Z,16.40
2022-10-15T05:41:39.026Z,18.15
2022-10-15T05:46:32.511Z,17.47
2022-10-15T05:48:59.660Z,15.10
2022-10-15T05:51:27.572Z,15.60
2022-10-15T05:53:58.606Z,14.90
2022-10-15T05:56:26.288Z,15.50
2022-10-15T05:58:53.214Z,18.60
2022-10-15T06:01:20.642Z,18.30
2022-10-15T06:03:47.367Z,19.30
2022-10-15T06:06:26.463Z,19.30
2022-10-15T06:08:54.455Z,16.90
2022-10-15T06:11:21.606Z,17.15
2022-10-15T06:13:48.416Z,16.73
2022-10-15T06:16:20.811Z,17.67
2022-10-15T06:18:53.223Z,18.63
2022-10-15T06:21:20.284Z,15.57
2022-10-15T06:23:47.210Z,18.73
2022-10-15T06:26:14.066Z,16.80
2022-10-15T06:28:40.907Z,17.90
2022-10-15T06:31:08.126Z,15.95
2022-10-15T06:33:35.892Z,17.13
2022-10-15T06:36:08.430Z,17.60
2022-10-15T06:38:35.910Z,19.10
2022-10-15T06:41:08.887Z,17.60
2022-10-15T06:43:36.275Z,17.93
2022-10-15T06:46:05.579Z,19.50
2022-10-15T06:48:33.084Z,18.27
2022-10-15T06:51:01.334Z,21.25
2022-10-15T06:53:29.112Z,22.93
2022-10-15T06:56:00.447Z,18.93
2022-10-15T06:58:27.736Z,20.15
2022-10-15T07:01:03.907Z,20.38
2022-10-15T07:03:30.843Z,19.17
2022-10-15T07:06:05.667Z,19.35
2022-10-15T07:08:33.038Z,19.08
2022-10-15T07:11:03.311Z,18.10
2022-10-15T07:13:30.827Z,18.65
2022-10-15T07:15:57.605Z,18.23
2022-10-15T07:18:24.504Z,19.45
2022-10-15T07:20:51.247Z,18.20
2022-10-15T07:23:17.997Z,17.75
2022-10-15T07:25:44.839Z,17.20
2022-10-15T07:28:11.563Z,16.23
2022-10-15T07:30:38.312Z,17.10
2022-10-15T07:33:05.048Z,16.70
2022-10-15T07:35:31.852Z,18.60
2022-10-15T07:38:01.979Z,17.80
2022-10-15T07:42:59.952Z,17.60
2022-10-15T07:45:27.924Z,17.10
2022-10-15T07:47:54.834Z,16.70
2022-10-15T07:50:21.762Z,13.77
2022-10-15T07:52:48.687Z,16.40
2022-10-15T07:57:42.331Z,20.45
2022-10-15T08:00:09.974Z,18.20
2022-10-15T08:02:36.750Z,17.10
2022-10-15T08:07:30.611Z,14.60
2022-10-15T08:09:57.340Z,16.00
2022-10-15T08:14:51.078Z,14.50
2022-10-15T08:17:17.837Z,15.60
2022-10-15T08:19:44.526Z,14.70
2022-10-15T08:24:39.209Z,16.80
2022-10-15T08:27:05.923Z,18.50
2022-10-15T08:29:32.677Z,17.40
2022-10-15T08:34:26.273Z,17.60
2022-10-15T08:44:27.774Z,20.40
2022-10-15T08:49:54.007Z,17.50
2022-10-15T08:52:42.048Z,17.90
2022-10-15T08:57:57.323Z,16.60
2022-10-15T09:03:15.932Z,17.10
2022-10-15T09:06:13.990Z,15.60
2022-10-15T09:29:31.878Z,15.10
2022-10-15T09:32:42.950Z,14.80
2022-10-15T09:50:43.057Z,12.80
2022-10-15T09:53:18.860Z,12.10
2022-10-15T10:01:03.081Z,13.30
2022-10-15T10:03:32.677Z,11.50
2022-10-15T10:06:04.750Z,13.20
2022-10-15T13:07:54.493Z,3.58
2022-10-15T13:10:40.730Z,3.05
2022-10-15T19:46:03.605Z,3.00
2022-10-15T19:56:01.214Z,2.80
2022-10-15T19:58:28.505Z,2.75
2022-10-15T20:20:39.478Z,3.50
2022-10-15T20:27:59.973Z,3.80
2022-10-15T20:32:53.889Z,3.40
2022-10-15T20:37:47.953Z,3.70
2022-10-15T20:40:15.140Z,3.30
2022-10-15T20:42:41.968Z,3.93
2022-10-15T20:45:14.285Z,4.20
2022-10-15T20:47:45.173Z,3.83
2022-10-15T20:50:16.667Z,4.75
2022-10-15T20:52:43.491Z,5.88
2022-10-15T20:55:11.203Z,5.35
2022-10-15T21:12:21.284Z,5.90
2022-10-15T22:06:26.065Z,5.60
2022-10-15T22:11:27.540Z,4.30
2022-10-15T22:16:27.959Z,5.60
2022-10-15T22:21:26.345Z,3.60
2022-10-15T22:41:19.199Z,4.00
2022-10-15T22:53:37.576Z,3.50
